Terminal Aerodrome Forecast
Issued by NWS Sioux Falls, SD

Home | Current Version | Previous Version | Graphics & Text | Print | Product List | Glossary On
Versions: 1 2 3 4 5 6 7 8 9 10 11 12 13
000
FTUS43 KFSD 071700 RRA
TAFHON
TAF
KHON 071742Z 0718/0818 23008KT P6SM SCT100 BKN250
     FM071900 25009KT P6SM BKN100
      TEMPO 0719/0722 4SM TSRA BKN040CB
     FM072300 33012G19KT P6SM SCT040 BKN100
     FM080600 32008KT P6SM FEW035
     FM081500 32015G22KT P6SM BKN040=

USA.gov is the U.S. government's official web portal to all federal, state and local government web resources and services.